This is the latest recevied weather packets stored in our database for station/object KC9Q. If no packets are shown the sender has not sent any weather packets the latest 10 day(s).
| Time | Temp. | Humidity | Pressure | Rain* | Wind** | Luminosity | Snow |
|---|---|---|---|---|---|---|---|
| 1778124751 | 13.33° C | 76% | 1015.1 hPa | 0 mm | - | 0 W/m² | - |
| 1778124448 | 13.33° C | 75% | 1015.2 hPa | 0 mm | - | 0 W/m² | - |
| 1778124144 | 13.33° C | 75% | 1015.1 hPa | 0 mm | - | 0 W/m² | - |
| 1778123841 | 13.33° C | 73% | 1015.2 hPa | 0 mm | - | 0 W/m² | - |
| 1778123537 | 13.33° C | 73% | 1015.3 hPa | 0 mm | - | 0 W/m² | - |
| 1778123234 | 13.33° C | 74% | 1015.1 hPa | 0 mm | - | 0 W/m² | - |
| 1778122932 | 13.89° C | 73% | 1015.3 hPa | 0 mm | - | 0 W/m² | - |
| 1778122629 | 13.89° C | 72% | 1015.6 hPa | 0 mm | - | 0 W/m² | - |
| 1778122326 | 13.89° C | 73% | 1015.2 hPa | 0 mm | - | 0 W/m² | - |
| 1778122024 | 13.89° C | 72% | 1015.4 hPa | 0 mm | - | 0 W/m² | - |
| 1778121721 | 13.89° C | 73% | 1015.2 hPa | 0 mm | - | 0 W/m² | - |
| 1778121416 | 13.89° C | 74% | 1014.9 hPa | 0 mm | - | 0 W/m² | - |
| 1778121114 | 13.89° C | 75% | 1014.9 hPa | 0 mm | - | 0 W/m² | - |
| 1778120811 | 13.89° C | 77% | 1014.7 hPa | 0 mm | - | 0 W/m² | - |
| 1778120506 | 13.89° C | 74% | 1014.5 hPa | 0 mm | - | 0 W/m² | - |
| 1778120203 | 13.89° C | 73% | 1015 hPa | 0 mm | - | 0 W/m² | - |
| 1778119898 | 13.89° C | 70% | 1015.1 hPa | 0 mm | - | 0 W/m² | - |
| 1778119597 | 13.89° C | 69% | 1015.2 hPa | 0 mm | - | 0 W/m² | - |
| 1778119293 | 14.44° C | 69% | 1015.4 hPa | 0 mm | - | 0 W/m² | - |
| 1778118991 | 14.44° C | 68% | 1015.6 hPa | 0 mm | - | 0 W/m² | - |
| 1778118688 | 14.44° C | 68% | 1015.9 hPa | 0 mm | - | 0 W/m² | - |
| 1778118385 | 13.89° C | 68% | 1015.5 hPa | 0 mm | - | 0 W/m² | - |
| 1778118081 | 13.89° C | 74% | 1015.2 hPa | 0 mm | - | 0 W/m² | - |
| 1778117778 | 13.89° C | 76% | 1015.2 hPa | 0 mm | - | 0 W/m² | - |
| 1778117475 | 13.89° C | 79% | 1015 hPa | 0 mm | - | 0 W/m² | - |
* Rain latest hour (hover to see other rain measurements)
** Current wind speed in m/s (hover to see current wind gust speed)